Share

Grand Rapids, MN (55744)

Northwest (KMNGRAND14) Elev 1299 ft | 47.24 °N, 93.53 °W | Change Station

Current weather conditions updated 2 seconds ago

Overcast
Overcast
42.4 °F
Feels Like 40 °F
N
3.8
Wind Variable Wind from NE
Gusts 6.9 mph
Sunrise 6:22 AM
Sunset 8:05 PM
Moon Waning Gibbous

Today is forecast to be Much Warmer than yesterday.

Pressure 30.24 in
Visibility 10.0 miles
Clouds Overcast 3800 ft
Windchill 40 °F
Dew Point 22 °F
Humidity 43%
Rainfall 0.00 in
Snow Depth Not available.
UV 3 out of 16
Pollen 7.90 out of 12
Air Quality Not available.
Flu Activity Sporadic
METAR KGPZ 171835Z AUTO 33013KT 10SM OVC038 03/M07 A3024 RMK AO1

More Conditions Fewer Conditions

Pressure 30.24 in
Visibility 10.0 miles
Clouds Overcast 3800 ft
Windchill 40 °F
Dew Point 22 °F
Humidity 43%
Rainfall 0.00 in
Snow Depth Not available.
UV 3 out of 16
Pollen 7.90 out of 12
Air Quality Not available.
Flu Activity Sporadic
METAR KGPZ 171835Z AUTO 33013KT 10SM OVC038 03/M07 A3024 RMK AO1

More Conditions Fewer Conditions

10-Day Forecast

Almanac

Astronomy

Apr. 17, 2014 Rise Set
Actual Time 6:22 AM CDT 8:05 PM CDT
Civil Twilight 5:49 AM CDT 8:38 PM CDT
Nautical Twilight 5:10 AM CDT 9:18 PM CDT
Astronomical Twilight 4:27 AM CDT 10:01 PM CDT
Moon 11:00 PM CDT 7:47 AM CDT
Length of Visible Light 14h 48m
Length of Day
13h 43m
Tomorrow will be 3m 13s longer.
Waning Gibbous, 93% of the Moon is Illuminated
Today
Waning Gibbous
Apr 22
Last Quarter
Apr 29
New
May 6
First Quarter
May 14
Full

Today's Extremes

State Highs State Lows

Community

  • New Day
    New Day
  • Lake Michigan Sunrise
    Lake Michigan Sunrise
  • sunset from izmir, narlıdere
    sunset from izmir, narlıdere
  • oregon cherry
    oregon cherry
  • Sunset over the Bay
    Sunset over the Bay

WunderPhotos

Upload Photos

1,702,094 photos uploaded!

Nearby

Snow Depth

Station Depth Elevation
No new snow has been reported.

Coastal Water Temperatures

Place Temperature
No Stations Reporting

Earthquake Activity

City Distance Mag. Time & Date
No recent earthquake activity has been reported nearby.
Minimum magnitude displayed is 2.5.

Nearby Weather Stations

Station Location Temp. Windchill Dew Point Humidity Wind Precip. Elev Updated Type
Northwest, Grand Rapids, MN 42.4 °F 40 °F 22 °F 43% NE  at  3.8 mph 0.00 in / hr 1299 ft 1:48 PM CDT Rapid Fire
Southwest, Grand Rapids, MN 42.8 °F 41 °F 23 °F 45% NW  at  3.8 mph 0.00 in / hr 1283 ft 1:43 PM CDT Normal
Near Hwy 63, Cohasset, MN 39.4 °F 39 °F 21 °F 48% NW  at  3.0 mph 0.00 in / hr 1306 ft 1:42 PM CDT Normal
RAWS HILL CITY MN, Hill City, MN 39 °F 35 °F 20 °F 47% North  at  5 mph 0.00 in / hr 1339 ft 1:07 PM CDT MADIS
Gus' Place Resort, Deer River, MN 40.3 °F 37 °F 24 °F 51% NNE  at  4.7 mph - / hr 1263 ft 1:42 PM CDT Normal

Show More Stations Show Fewer Stations

What do you think?

We're not finished. Please let us know what you like, what you don't like, and what you are still missing.